This is the latest recevied weather packets stored in our database for station/object KD5HIA. If no packets are shown the sender has not sent any weather packets the latest 10 day(s).
| Time | Temp. | Humidity | Pressure | Rain* | Wind** | Luminosity | Snow |
|---|---|---|---|---|---|---|---|
| 1777851617 | 24.44° C | 38% | 1015.7 hPa | 0 mm | - | 113 W/m² | - |
| 1777851017 | 24.44° C | 38% | 1015.7 hPa | 0 mm | - | 149 W/m² | - |
| 1777850417 | 25° C | 38% | 1015.9 hPa | 0 mm | - | 206 W/m² | - |
| 1777849817 | 25° C | 37% | 1015.9 hPa | 0 mm | - | 227 W/m² | - |
| 1777849217 | 24.44° C | 38% | 1016.1 hPa | 0 mm | - | 258 W/m² | - |
| 1777848617 | 25.56° C | 38% | 1016.2 hPa | 0 mm | - | 457 W/m² | - |
| 1777848017 | 24.44° C | 39% | 1016.4 hPa | 0 mm | - | 317 W/m² | - |
| 1777847417 | 24.44° C | 39% | 1016.6 hPa | 0 mm | - | 228 W/m² | - |
| 1777846817 | 24.44° C | 37% | 1016.6 hPa | 0 mm | - | 217 W/m² | - |
| 1777846217 | 25° C | 37% | 1016.9 hPa | 0 mm | - | 242 W/m² | - |
| 1777845617 | 25° C | 37% | 1016.7 hPa | 0 mm | - | 314 W/m² | - |
| 1777845017 | 25° C | 37% | 1016.7 hPa | 0 mm | - | 306 W/m² | - |
| 1777844417 | 25° C | 37% | 1017 hPa | 0 mm | - | 345 W/m² | - |
| 1777843817 | 25.56° C | 36% | 1016.9 hPa | 0 mm | - | 374 W/m² | - |
| 1777843217 | 25.56° C | 36% | 1017.3 hPa | 0 mm | - | 433 W/m² | - |
| 1777842617 | 26.11° C | 36% | 1017.6 hPa | 0 mm | - | 705 W/m² | - |
| 1777842017 | 25.56° C | 36% | 1017.9 hPa | 0 mm | - | 805 W/m² | - |
| 1777841417 | 25.56° C | 36% | 1017.9 hPa | 0 mm | - | 822 W/m² | - |
| 1777840817 | 25.56° C | 36% | 1018.2 hPa | 0 mm | - | 692 W/m² | - |
| 1777840217 | 25.56° C | 36% | 1018.2 hPa | 0 mm | - | 812 W/m² | - |
| 1777839617 | 25.56° C | 38% | 1018.6 hPa | 0 mm | - | 809 W/m² | - |
| 1777839017 | 25° C | 38% | 1018.8 hPa | 0 mm | - | 577 W/m² | - |
| 1777838417 | 25° C | 38% | 1018.9 hPa | 0 mm | - | 698 W/m² | - |
| 1777837817 | 25.56° C | 38% | 1019.2 hPa | 0 mm | - | 743 W/m² | - |
| 1777837217 | 24.44° C | 40% | 1019.2 hPa | 0 mm | - | 766 W/m² | - |
* Rain latest hour (hover to see other rain measurements)
** Current wind speed in m/s (hover to see current wind gust speed)